sensor_id;sensor_type;location;lat;lon;timestamp;pressure;altitude;pressure_sealevel;temperature;humidity
6034;BME280;3045;43.226;27.858;2022-07-29T00:00:31;1456.72;;;21.87;100.00
6034;BME280;3045;43.226;27.858;2022-07-29T00:02:58;-821.19;;;21.83;100.00
6034;BME280;3045;43.226;27.858;2022-07-29T00:05:25;-3747.06;;;21.66;100.00
6034;BME280;3045;43.226;27.858;2022-07-29T00:07:52;-5046.19;;;21.62;100.00
6034;BME280;3045;43.226;27.858;2022-07-29T00:10:18;-6668.94;;;21.53;100.00
6034;BME280;3045;43.226;27.858;2022-07-29T00:12:47;-8938.63;;;21.40;100.00
6034;BME280;3045;43.226;27.858;2022-07-29T00:15:14;-9587.41;;;21.44;100.00
6034;BME280;3045;43.226;27.858;2022-07-29T00:17:41;-9910.38;;;21.32;100.00
6034;BME280;3045;43.226;27.858;2022-07-29T00:20:09;-10882.72;;;21.34;100.00
6034;BME280;3045;43.226;27.858;2022-07-29T00:22:39;-11207.03;;;21.37;100.00
6034;BME280;3045;43.226;27.858;2022-07-29T00:25:07;-11530.94;;;21.36;100.00
6034;BME280;3045;43.226;27.858;2022-07-29T00:27:34;-11531.56;;;21.41;100.00
6034;BME280;3045;43.226;27.858;2022-07-29T00:30:03;-11204.50;;;21.16;100.00
6034;BME280;3045;43.226;27.858;2022-07-29T00:32:30;-10559.97;;;21.46;100.00
6034;BME280;3045;43.226;27.858;2022-07-29T00:34:57;-9262.25;;;21.33;100.00
6034;BME280;3045;43.226;27.858;2022-07-29T00:37:41;-8937.72;;;21.29;100.00
6034;BME280;3045;43.226;27.858;2022-07-29T00:40:08;-11851.78;;;21.13;100.00
6034;BME280;3045;43.226;27.858;2022-07-29T00:42:42;-11528.88;;;21.20;100.00
6034;BME280;3045;43.226;27.858;2022-07-29T00:45:11;-12176.81;;;21.22;100.00
6034;BME280;3045;43.226;27.858;2022-07-29T00:47:38;-11850.69;;;21.05;100.00
6034;BME280;3045;43.226;27.858;2022-07-29T00:50:07;-11529.25;;;21.23;100.00
6034;BME280;3045;43.226;27.858;2022-07-29T00:52:35;-11853.03;;;21.23;100.00
6034;BME280;3045;43.226;27.858;2022-07-29T00:55:03;-11852.84;;;21.21;100.00
6034;BME280;3045;43.226;27.858;2022-07-29T00:57:30;-12175.81;;;21.15;100.00
6034;BME280;3045;43.226;27.858;2022-07-29T00:59:57;-12176.16;;;21.18;100.00
6034;BME280;3045;43.226;27.858;2022-07-29T01:02:25;-11853.66;;;21.27;100.00
6034;BME280;3045;43.226;27.858;2022-07-29T01:04:52;-10233.81;;;21.26;100.00
6034;BME280;3045;43.226;27.858;2022-07-29T01:07:20;-7964.72;;;21.24;100.00
6034;BME280;3045;43.226;27.858;2022-07-29T01:09:47;-7964.16;;;21.16;100.00
6034;BME280;3045;43.226;27.858;2022-07-29T01:12:16;-8612.13;;;21.12;100.00
6034;BME280;3045;43.226;27.858;2022-07-29T01:14:45;-3422.25;;;21.13;100.00
6034;BME280;3045;43.226;27.858;2022-07-29T01:17:16;-4720.50;;;21.13;100.00
6034;BME280;3045;43.226;27.858;2022-07-29T01:19:50;-6341.84;;;20.96;100.00
6034;BME280;3045;43.226;27.858;2022-07-29T01:22:27;-6666.53;;;21.05;100.00
6034;BME280;3045;43.226;27.858;2022-07-29T01:25:22;-6988.81;;;20.70;100.00
6034;BME280;3045;43.226;27.858;2022-07-29T01:28:08;-7962.41;;;20.92;100.00
6034;BME280;3045;43.226;27.858;2022-07-29T01:30:38;-8933.66;;;20.82;100.00
6034;BME280;3045;43.226;27.858;2022-07-29T01:33:09;-8610.09;;;20.87;100.00
6034;BME280;3045;43.226;27.858;2022-07-29T01:35:58;-8610.25;;;20.89;100.00
6034;BME280;3045;43.226;27.858;2022-07-29T01:38:28;-7314.31;;;20.93;100.00
6034;BME280;3045;43.226;27.858;2022-07-29T01:41:01;-6341.88;;;20.97;100.00
6034;BME280;3045;43.226;27.858;2022-07-29T01:43:43;-6990.25;;;20.95;100.00
6034;BME280;3045;43.226;27.858;2022-07-29T01:46:15;-6666.19;;;20.98;100.00
6034;BME280;3045;43.226;27.858;2022-07-29T01:48:48;-6341.44;;;20.87;100.00
6034;BME280;3045;43.226;27.858;2022-07-29T01:51:19;-5044.78;;;21.04;100.00
6034;BME280;3045;43.226;27.858;2022-07-29T01:53:51;-4395.84;;;21.02;100.00
6034;BME280;3045;43.226;27.858;2022-07-29T01:56:22;-3097.63;;;21.09;100.00
6034;BME280;3045;43.226;27.858;2022-07-29T01:58:51;-1149.16;;;21.10;100.00
6034;BME280;3045;43.226;27.858;2022-07-29T02:01:22;-175.34;;;20.94;100.00
6034;BME280;3045;43.226;27.858;2022-07-29T02:03:52;-1149.56;;;20.99;100.00
6034;BME280;3045;43.226;27.858;2022-07-29T02:06:21;-3097.78;;;20.86;100.00
6034;BME280;3045;43.226;27.858;2022-07-29T02:08:50;-2124.03;;;20.87;100.00
6034;BME280;3045;43.226;27.858;2022-07-29T02:11:18;-500.91;;;20.79;100.00
6034;BME280;3045;43.226;27.858;2022-07-29T02:13:46;-500.56;;;20.86;100.00
6034;BME280;3045;43.226;27.858;2022-07-29T02:16:15;-824.94;;;20.95;100.00
6034;BME280;3045;43.226;27.858;2022-07-29T02:18:48;149.47;;;20.93;100.00
6034;BME280;3045;43.226;27.858;2022-07-29T02:21:20;-500.47;;;20.88;100.00
6034;BME280;3045;43.226;27.858;2022-07-29T02:23:48;-175.66;;;20.88;100.00
6034;BME280;3045;43.226;27.858;2022-07-29T02:26:17;1125.28;;;21.07;100.00
6034;BME280;3045;43.226;27.858;2022-07-29T02:28:45;1450.16;;;21.05;100.00
6034;BME280;3045;43.226;27.858;2022-07-29T02:31:13;-500.13;;;20.95;100.00
6034;BME280;3045;43.226;27.858;2022-07-29T02:33:41;-825.34;;;20.86;100.00
6034;BME280;3045;43.226;27.858;2022-07-29T02:36:11;-825.19;;;20.89;100.00
6034;BME280;3045;43.226;27.858;2022-07-29T02:38:38;-1799.22;;;20.94;100.00
6034;BME280;3045;43.226;27.858;2022-07-29T02:41:19;-1474.28;;;21.01;100.00
6034;BME280;3045;43.226;27.858;2022-07-29T02:43:48;-499.75;;;21.03;100.00
6034;BME280;3045;43.226;27.858;2022-07-29T02:46:19;-824.97;;;20.94;100.00
6034;BME280;3045;43.226;27.858;2022-07-29T02:48:51;-500.28;;;20.92;100.00
6034;BME280;3045;43.226;27.858;2022-07-29T02:51:28;-500.56;;;20.86;100.00
6034;BME280;3045;43.226;27.858;2022-07-29T02:54:00;-1474.69;;;20.88;100.00
6034;BME280;3045;43.226;27.858;2022-07-29T02:56:32;-2448.56;;;20.92;100.00
6034;BME280;3045;43.226;27.858;2022-07-29T02:59:03;-2773.34;;;20.76;100.00
6034;BME280;3045;43.226;27.858;2022-07-29T03:01:33;-4071.09;;;20.75;100.00
6034;BME280;3045;43.226;27.858;2022-07-29T03:04:03;-4071.03;;;20.69;100.00
6034;BME280;3045;43.226;27.858;2022-07-29T03:06:33;-3422.28;;;20.69;100.00
6034;BME280;3045;43.226;27.858;2022-07-29T03:09:01;-4395.53;;;20.81;100.00
6034;BME280;3045;43.226;27.858;2022-07-29T03:11:28;-5692.81;;;20.83;100.00
6034;BME280;3045;43.226;27.858;2022-07-29T03:13:56;-7313.06;;;20.73;100.00
6034;BME280;3045;43.226;27.858;2022-07-29T03:16:23;-6989.88;;;20.88;100.00
6034;BME280;3045;43.226;27.858;2022-07-29T03:18:51;-6017.28;;;20.89;100.00
6034;BME280;3045;43.226;27.858;2022-07-29T03:21:18;-3746.75;;;20.84;100.00
6034;BME280;3045;43.226;27.858;2022-07-29T03:23:47;-3746.78;;;20.95;100.00
6034;BME280;3045;43.226;27.858;2022-07-29T03:26:14;-3097.63;;;21.09;100.00
6034;BME280;3045;43.226;27.858;2022-07-29T03:28:41;1128.69;;;21.53;100.00
6034;BME280;3045;43.226;27.858;2022-07-29T03:31:07;10588.00;;;22.08;100.00
6034;BME280;3045;43.226;27.858;2022-07-29T03:33:37;29932.44;;;22.53;100.00
6034;BME280;3045;43.226;27.858;2022-07-29T03:36:04;44786.34;;;22.94;100.00
6034;BME280;3045;43.226;27.858;2022-07-29T03:38:33;52707.13;;;22.76;100.00
6034;BME280;3045;43.226;27.858;2022-07-29T03:41:07;47084.25;;;22.75;100.00
6034;BME280;3045;43.226;27.858;2022-07-29T03:43:38;48413.91;;;22.85;100.00
6034;BME280;3045;43.226;27.858;2022-07-29T03:46:07;50403.09;;;22.90;100.00
6034;BME280;3045;43.226;27.858;2022-07-29T03:48:36;56362.81;;;22.89;100.00
6034;BME280;3045;43.226;27.858;2022-07-29T03:51:03;56709.88;;;23.05;100.00
6034;BME280;3045;43.226;27.858;2022-07-29T03:53:31;70055.94;;;23.54;100.00
6034;BME280;3045;43.226;27.858;2022-07-29T03:56:01;83426.28;;;23.68;100.00
6034;BME280;3045;43.226;27.858;2022-07-29T03:58:30;106649.03;;;24.05;100.00
6034;BME280;3045;43.226;27.858;2022-07-29T04:00:58;106690.38;;;24.29;100.00
6034;BME280;3045;43.226;27.858;2022-07-29T04:03:25;52532.09;;;24.50;100.00
6034;BME280;3045;43.226;27.858;2022-07-29T04:06:00;30706.28;;;24.67;100.00
6034;BME280;3045;43.226;27.858;2022-07-29T04:08:27;28404.34;;;24.79;100.00
6034;BME280;3045;43.226;27.858;2022-07-29T04:10:54;35675.69;;;24.95;100.00
6034;BME280;3045;43.226;27.858;2022-07-29T04:13:21;68240.94;;;25.14;100.00
6034;BME280;3045;43.226;27.858;2022-07-29T04:15:49;107196.97;;;25.24;100.00
6034;BME280;3045;43.226;27.858;2022-07-29T04:18:16;152404.25;;;25.31;100.00
6034;BME280;3045;43.226;27.858;2022-07-29T04:20:43;152413.19;;;25.34;100.00
6034;BME280;3045;43.226;27.858;2022-07-29T04:23:10;152385.09;;;25.23;100.00
6034;BME280;3045;43.226;27.858;2022-07-29T04:25:38;152397.91;;;25.28;100.00
6034;BME280;3045;43.226;27.858;2022-07-29T04:28:05;152425.97;;;25.39;100.00
6034;BME280;3045;43.226;27.858;2022-07-29T04:30:34;152438.78;;;25.44;100.00
6034;BME280;3045;43.226;27.858;2022-07-29T04:33:04;152498.84;;;25.68;100.00
6034;BME280;3045;43.226;27.858;2022-07-29T04:35:34;152514.22;;;25.74;100.00
6034;BME280;3045;43.226;27.858;2022-07-29T04:38:02;152505.28;;;25.71;100.00
6034;BME280;3045;43.226;27.858;2022-07-29T04:40:29;152544.88;;;25.86;100.00
6034;BME280;3045;43.226;27.858;2022-07-29T04:42:56;152555.09;;;25.90;100.00
6034;BME280;3045;43.226;27.858;2022-07-29T04:45:23;152638.22;;;26.23;100.00
6034;BME280;3045;43.226;27.858;2022-07-29T04:47:50;152725.19;;;26.58;100.00
6034;BME280;3045;43.226;27.858;2022-07-29T04:50:18;152801.97;;;26.88;100.00
6034;BME280;3045;43.226;27.858;2022-07-29T04:52:45;152890.25;;;27.23;100.00
6034;BME280;3045;43.226;27.858;2022-07-29T04:55:12;152936.31;;;27.41;100.00
6034;BME280;3045;43.226;27.858;2022-07-29T04:57:39;152984.97;;;27.60;100.00
6034;BME280;3045;43.226;27.858;2022-07-29T05:00:07;152959.34;;;27.50;100.00
6034;BME280;3045;43.226;27.858;2022-07-29T05:02:34;153057.88;;;27.89;100.00
6034;BME280;3045;43.226;27.858;2022-07-29T05:05:01;153133.44;;;28.19;100.00
6034;BME280;3045;43.226;27.858;2022-07-29T05:07:29;153175.69;;;28.36;100.00
6034;BME280;3045;43.226;27.858;2022-07-29T05:09:56;153202.59;;;28.46;100.00
6034;BME280;3045;43.226;27.858;2022-07-29T05:12:23;153223.09;;;28.54;100.00
6034;BME280;3045;43.226;27.858;2022-07-29T05:14:50;153287.16;;;28.80;100.00
6034;BME280;3045;43.226;27.858;2022-07-29T05:17:17;153375.53;;;29.15;100.00
6034;BME280;3045;43.226;27.858;2022-07-29T05:19:44;153403.69;;;29.26;100.00
6034;BME280;3045;43.226;27.858;2022-07-29T05:22:11;153339.66;;;29.00;100.00
6034;BME280;3045;43.226;27.858;2022-07-29T05:24:39;153328.13;;;28.96;100.00
6034;BME280;3045;43.226;27.858;2022-07-29T05:27:06;153299.97;;;28.85;100.00
6034;BME280;3045;43.226;27.858;2022-07-29T05:29:33;153302.50;;;28.86;100.00
6034;BME280;3045;43.226;27.858;2022-07-29T05:32:00;153270.47;;;28.73;100.00
6034;BME280;3045;43.226;27.858;2022-07-29T05:34:27;153312.72;;;28.90;100.00
6034;BME280;3045;43.226;27.858;2022-07-29T05:36:54;153308.91;;;28.88;100.00
6034;BME280;3045;43.226;27.858;2022-07-29T05:39:21;153287.16;;;28.80;100.00
6034;BME280;3045;43.226;27.858;2022-07-29T05:41:49;153280.72;;;28.77;100.00
6034;BME280;3045;43.226;27.858;2022-07-29T05:44:17;153305.06;;;28.87;100.00
6034;BME280;3045;43.226;27.858;2022-07-29T05:46:44;153315.31;;;28.91;100.00
6034;BME280;3045;43.226;27.858;2022-07-29T05:49:11;153376.81;;;29.15;100.00
6034;BME280;3045;43.226;27.858;2022-07-29T05:51:38;153387.06;;;29.19;100.00
6034;BME280;3045;43.226;27.858;2022-07-29T05:54:05;153451.16;;;29.44;100.00
6034;BME280;3045;43.226;27.858;2022-07-29T05:56:32;153501.09;;;29.64;100.00
6034;BME280;3045;43.226;27.858;2022-07-29T05:59:01;153495.94;;;29.62;100.00
6034;BME280;3045;43.226;27.858;2022-07-29T06:01:28;153569.06;;;29.91;100.00
6034;BME280;3045;43.226;27.858;2022-07-29T06:03:55;153567.78;;;29.90;100.00
6034;BME280;3045;43.226;27.858;2022-07-29T06:06:22;153742.13;;;30.59;100.00
6034;BME280;3045;43.226;27.858;2022-07-29T06:08:49;153849.88;;;31.02;100.00
6034;BME280;3045;43.226;27.858;2022-07-29T06:11:16;153964.00;;;31.47;100.00
6034;BME280;3045;43.226;27.858;2022-07-29T06:13:42;153967.84;;;31.48;100.00
6034;BME280;3045;43.226;27.858;2022-07-29T06:16:11;154110.25;;;32.04;100.00
6034;BME280;3045;43.226;27.858;2022-07-29T06:18:37;154186.00;;;32.34;100.00
6034;BME280;3045;43.226;27.858;2022-07-29T06:21:07;154333.69;;;32.92;100.00
6034;BME280;3045;43.226;27.858;2022-07-29T06:23:35;154363.19;;;33.04;100.00
6034;BME280;3045;43.226;27.858;2022-07-29T06:26:03;154313.16;;;32.84;100.00
6034;BME280;3045;43.226;27.858;2022-07-29T06:28:30;154215.56;;;32.46;97.82
6034;BME280;3045;43.226;27.858;2022-07-29T06:30:57;154178.31;;;32.31;100.00
6034;BME280;3045;43.226;27.858;2022-07-29T06:33:25;154360.63;;;33.03;97.65
6034;BME280;3045;43.226;27.858;2022-07-29T06:35:52;154573.84;;;33.87;100.00
6034;BME280;3045;43.226;27.858;2022-07-29T06:38:20;154513.47;;;33.63;100.00
6034;BME280;3045;43.226;27.858;2022-07-29T06:40:46;154648.41;;;34.16;100.00
6034;BME280;3045;43.226;27.858;2022-07-29T06:43:32;154626.50;;;34.08;98.04
6034;BME280;3045;43.226;27.858;2022-07-29T06:46:02;154713.91;;;34.42;96.48
6034;BME280;3045;43.226;27.858;2022-07-29T06:48:31;154712.69;;;34.42;93.83
6034;BME280;3045;43.226;27.858;2022-07-29T06:50:59;154447.97;;;33.37;100.00
6034;BME280;3045;43.226;27.858;2022-07-29T06:53:27;154314.41;;;32.85;100.00
6034;BME280;3045;43.226;27.858;2022-07-29T06:55:54;154310.56;;;32.83;100.00
6034;BME280;3045;43.226;27.858;2022-07-29T06:58:21;154405.59;;;33.21;100.00
6034;BME280;3045;43.226;27.858;2022-07-29T07:00:48;154460.81;;;33.42;95.52
6034;BME280;3045;43.226;27.858;2022-07-29T07:03:16;154572.56;;;33.86;91.13
6034;BME280;3045;43.226;27.858;2022-07-29T07:05:45;154611.13;;;34.02;91.30
6034;BME280;3045;43.226;27.858;2022-07-29T07:08:12;154751.19;;;34.57;87.07
6034;BME280;3045;43.226;27.858;2022-07-29T07:10:42;154803.91;;;34.77;83.19
6034;BME280;3045;43.226;27.858;2022-07-29T07:13:09;154721.66;;;34.45;84.28
6034;BME280;3045;43.226;27.858;2022-07-29T07:15:37;154471.09;;;33.46;88.82
6034;BME280;3045;43.226;27.858;2022-07-29T07:18:04;154446.69;;;33.37;88.56
6034;BME280;3045;43.226;27.858;2022-07-29T07:20:32;154401.75;;;33.19;87.12
6034;BME280;3045;43.226;27.858;2022-07-29T07:23:00;154338.78;;;32.94;86.76
6034;BME280;3045;43.226;27.858;2022-07-29T07:25:27;154299.03;;;32.79;86.82
6034;BME280;3045;43.226;27.858;2022-07-29T07:27:54;154198.84;;;32.39;91.07
6034;BME280;3045;43.226;27.858;2022-07-29T07:30:21;154236.09;;;32.54;88.58
6034;BME280;3045;43.226;27.858;2022-07-29T07:32:48;154274.63;;;32.69;87.04
6034;BME280;3045;43.226;27.858;2022-07-29T07:35:15;154378.56;;;33.10;88.58
6034;BME280;3045;43.226;27.858;2022-07-29T07:37:45;154417.16;;;33.25;82.02
6034;BME280;3045;43.226;27.858;2022-07-29T07:40:14;154413.31;;;33.24;81.07
6034;BME280;3045;43.226;27.858;2022-07-29T07:42:41;154386.31;;;33.13;83.22
6034;BME280;3045;43.226;27.858;2022-07-29T07:45:09;154427.44;;;33.29;85.18
6034;BME280;3045;43.226;27.858;2022-07-29T07:47:36;154406.91;;;33.21;85.73
6034;BME280;3045;43.226;27.858;2022-07-29T07:50:04;154414.59;;;33.24;88.29
6034;BME280;3045;43.226;27.858;2022-07-29T07:52:31;154456.97;;;33.41;85.70
6034;BME280;3045;43.226;27.858;2022-07-29T07:54:59;154361.91;;;33.03;83.98
6034;BME280;3045;43.226;27.858;2022-07-29T07:57:27;154379.88;;;33.11;81.09
6034;BME280;3045;43.226;27.858;2022-07-29T07:59:54;154391.47;;;33.15;80.54
6034;BME280;3045;43.226;27.858;2022-07-29T08:02:21;154423.56;;;33.28;79.83
6034;BME280;3045;43.226;27.858;2022-07-29T08:04:48;154316.97;;;32.86;81.66
6034;BME280;3045;43.226;27.858;2022-07-29T08:07:15;154341.38;;;32.95;83.20
6034;BME280;3045;43.226;27.858;2022-07-29T08:09:42;154367.06;;;33.05;82.25
6034;BME280;3045;43.226;27.858;2022-07-29T08:12:09;154355.50;;;33.01;84.44
6034;BME280;3045;43.226;27.858;2022-07-29T08:14:37;154325.94;;;32.89;85.56
6034;BME280;3045;43.226;27.858;2022-07-29T08:17:04;154359.34;;;33.02;86.02
6034;BME280;3045;43.226;27.858;2022-07-29T08:19:32;154465.94;;;33.44;84.89
6034;BME280;3045;43.226;27.858;2022-07-29T08:22:00;154588.00;;;33.92;78.95
6034;BME280;3045;43.226;27.858;2022-07-29T08:24:27;154487.75;;;33.53;80.71
6034;BME280;3045;43.226;27.858;2022-07-29T08:27:18;154442.88;;;33.35;79.61
6034;BME280;3045;43.226;27.858;2022-07-29T08:29:47;154469.81;;;33.46;79.39
6034;BME280;3045;43.226;27.858;2022-07-29T08:32:14;154474.97;;;33.48;79.84
6034;BME280;3045;43.226;27.858;2022-07-29T08:34:41;154418.47;;;33.26;77.30
6034;BME280;3045;43.226;27.858;2022-07-29T08:37:12;154334.97;;;32.93;80.16
6034;BME280;3045;43.226;27.858;2022-07-29T08:39:39;154301.59;;;32.80;77.76
6034;BME280;3045;43.226;27.858;2022-07-29T08:42:06;154220.66;;;32.48;77.28
6034;BME280;3045;43.226;27.858;2022-07-29T08:44:35;154186.00;;;32.34;80.25
6034;BME280;3045;43.226;27.858;2022-07-29T08:47:04;154305.41;;;32.81;78.08
6034;BME280;3045;43.226;27.858;2022-07-29T08:49:33;154310.56;;;32.83;76.15
6034;BME280;3045;43.226;27.858;2022-07-29T08:52:00;154351.66;;;32.99;75.19
6034;BME280;3045;43.226;27.858;2022-07-29T08:54:30;154284.88;;;32.73;73.78
6034;BME280;3045;43.226;27.858;2022-07-29T08:56:58;154320.84;;;32.87;73.13
6034;BME280;3045;43.226;27.858;2022-07-29T08:59:27;154273.34;;;32.69;71.12
6034;BME280;3045;43.226;27.858;2022-07-29T09:01:54;154351.66;;;32.99;71.31
6034;BME280;3045;43.226;27.858;2022-07-29T09:04:29;154336.22;;;32.93;72.01
6034;BME280;3045;43.226;27.858;2022-07-29T09:06:59;154356.81;;;33.01;74.45
6034;BME280;3045;43.226;27.858;2022-07-29T09:09:27;154359.34;;;33.02;70.50
6034;BME280;3045;43.226;27.858;2022-07-29T09:11:54;154354.22;;;33.00;68.13
6034;BME280;3045;43.226;27.858;2022-07-29T09:14:21;154454.38;;;33.40;67.69
6034;BME280;3045;43.226;27.858;2022-07-29T09:16:51;154498.03;;;33.57;66.15
6034;BME280;3045;43.226;27.858;2022-07-29T09:19:24;154508.31;;;33.61;66.66
6034;BME280;3045;43.226;27.858;2022-07-29T09:21:54;154554.59;;;33.79;64.55
6034;BME280;3045;43.226;27.858;2022-07-29T09:24:24;154539.22;;;33.73;67.24
6034;BME280;3045;43.226;27.858;2022-07-29T09:26:51;154537.94;;;33.73;66.67
6034;BME280;3045;43.226;27.858;2022-07-29T09:29:19;154478.78;;;33.49;66.02
6034;BME280;3045;43.226;27.858;2022-07-29T09:31:48;154424.84;;;33.28;67.62
6034;BME280;3045;43.226;27.858;2022-07-29T09:34:16;154349.06;;;32.98;70.36
6034;BME280;3045;43.226;27.858;2022-07-29T09:36:45;154310.56;;;32.83;71.63
6034;BME280;3045;43.226;27.858;2022-07-29T09:39:15;154302.88;;;32.80;75.09
6034;BME280;3045;43.226;27.858;2022-07-29T09:41:47;154296.44;;;32.78;75.79
6034;BME280;3045;43.226;27.858;2022-07-29T09:44:15;154297.72;;;32.78;76.37
6034;BME280;3045;43.226;27.858;2022-07-29T09:46:53;154266.94;;;32.66;79.91
6034;BME280;3045;43.226;27.858;2022-07-29T09:49:20;154261.78;;;32.64;82.69
6034;BME280;3045;43.226;27.858;2022-07-29T09:51:47;154229.66;;;32.51;85.61
6034;BME280;3045;43.226;27.858;2022-07-29T09:54:27;154188.59;;;32.35;86.75
6034;BME280;3045;43.226;27.858;2022-07-29T09:56:59;154078.19;;;31.92;92.37
6034;BME280;3045;43.226;27.858;2022-07-29T09:59:26;154171.94;;;32.29;93.12
6034;BME280;3045;43.226;27.858;2022-07-29T10:01:53;154224.53;;;32.49;92.46
6034;BME280;3045;43.226;27.858;2022-07-29T10:04:20;154183.47;;;32.33;93.24
6034;BME280;3045;43.226;27.858;2022-07-29T10:06:58;154204.00;;;32.41;93.02
6034;BME280;3045;43.226;27.858;2022-07-29T10:09:26;154174.47;;;32.30;92.41
6034;BME280;3045;43.226;27.858;2022-07-29T10:12:08;154074.38;;;31.90;94.35
6034;BME280;3045;43.226;27.858;2022-07-29T10:14:37;154112.84;;;32.05;91.60
6034;BME280;3045;43.226;27.858;2022-07-29T10:17:05;154084.63;;;31.94;91.82
6034;BME280;3045;43.226;27.858;2022-07-29T10:19:33;154020.50;;;31.69;93.76
6034;BME280;3045;43.226;27.858;2022-07-29T10:22:02;154123.16;;;32.09;90.12
6034;BME280;3045;43.226;27.858;2022-07-29T10:24:31;154152.66;;;32.21;89.92
6034;BME280;3045;43.226;27.858;2022-07-29T10:27:01;154148.81;;;32.20;92.39
6034;BME280;3045;43.226;27.858;2022-07-29T10:29:28;154212.97;;;32.45;89.05
6034;BME280;3045;43.226;27.858;2022-07-29T10:32:19;154151.41;;;32.21;88.94
6034;BME280;3045;43.226;27.858;2022-07-29T10:34:57;154028.16;;;31.72;91.19
6034;BME280;3045;43.226;27.858;2022-07-29T10:37:33;154007.66;;;31.64;92.91
6034;BME280;3045;43.226;27.858;2022-07-29T10:40:11;153990.94;;;31.57;93.52
6034;BME280;3045;43.226;27.858;2022-07-29T10:43:05;153952.44;;;31.42;89.77
6034;BME280;3045;43.226;27.858;2022-07-29T10:45:34;153931.94;;;31.34;90.57
6034;BME280;3045;43.226;27.858;2022-07-29T10:48:04;153940.91;;;31.38;92.85
6034;BME280;3045;43.226;27.858;2022-07-29T10:50:52;153917.81;;;31.28;91.14
6034;BME280;3045;43.226;27.858;2022-07-29T10:53:19;153889.63;;;31.17;93.24
6034;BME280;3045;43.226;27.858;2022-07-29T10:55:48;153910.13;;;31.25;92.74
6034;BME280;3045;43.226;27.858;2022-07-29T10:58:17;153871.69;;;31.10;91.94
6034;BME280;3045;43.226;27.858;2022-07-29T11:00:45;153821.59;;;30.91;93.88
6034;BME280;3045;43.226;27.858;2022-07-29T11:03:42;153853.69;;;31.03;90.04
6034;BME280;3045;43.226;27.858;2022-07-29T11:06:10;153816.50;;;30.89;90.66
6034;BME280;3045;43.226;27.858;2022-07-29T11:08:37;153821.59;;;30.91;92.25
6034;BME280;3045;43.226;27.858;2022-07-29T11:11:32;153799.78;;;30.82;92.68
6034;BME280;3045;43.226;27.858;2022-07-29T11:14:00;153797.22;;;30.81;93.42
6034;BME280;3045;43.226;27.858;2022-07-29T11:17:03;153767.75;;;30.69;96.14
6034;BME280;3045;43.226;27.858;2022-07-29T11:19:30;153781.88;;;30.75;95.56
6034;BME280;3045;43.226;27.858;2022-07-29T11:21:58;153779.28;;;30.74;96.79
6034;BME280;3045;43.226;27.858;2022-07-29T11:24:26;153763.94;;;30.68;94.71
6034;BME280;3045;43.226;27.858;2022-07-29T11:27:13;153792.13;;;30.79;96.75
6034;BME280;3045;43.226;27.858;2022-07-29T11:29:48;153786.97;;;30.77;93.83
6034;BME280;3045;43.226;27.858;2022-07-29T11:32:16;153795.97;;;30.80;97.00
6034;BME280;3045;43.226;27.858;2022-07-29T11:34:46;153720.34;;;30.51;99.11
6034;BME280;3045;43.226;27.858;2022-07-29T11:37:21;153735.69;;;30.57;99.26
6034;BME280;3045;43.226;27.858;2022-07-29T11:40:21;153743.38;;;30.60;96.81
6034;BME280;3045;43.226;27.858;2022-07-29T11:42:50;153731.88;;;30.55;90.42
6034;BME280;3045;43.226;27.858;2022-07-29T11:45:31;153722.88;;;30.52;92.03
6034;BME280;3045;43.226;27.858;2022-07-29T11:48:18;153730.59;;;30.55;89.21
6034;BME280;3045;43.226;27.858;2022-07-29T11:50:45;153754.91;;;30.64;87.49
6034;BME280;3045;43.226;27.858;2022-07-29T11:53:13;153771.59;;;30.71;83.75
6034;BME280;3045;43.226;27.858;2022-07-29T11:55:41;153781.88;;;30.75;84.38
6034;BME280;3045;43.226;27.858;2022-07-29T11:58:09;153771.59;;;30.71;91.99
6034;BME280;3045;43.226;27.858;2022-07-29T12:00:39;153762.66;;;30.67;89.26
6034;BME280;3045;43.226;27.858;2022-07-29T12:03:09;153765.16;;;30.68;90.74
6034;BME280;3045;43.226;27.858;2022-07-29T12:05:39;153758.78;;;30.66;88.89
6034;BME280;3045;43.226;27.858;2022-07-29T12:08:07;153743.38;;;30.60;92.24
6034;BME280;3045;43.226;27.858;2022-07-29T12:10:35;153745.94;;;30.61;90.50
6034;BME280;3045;43.226;27.858;2022-07-29T12:13:02;153758.78;;;30.66;91.14
6034;BME280;3045;43.226;27.858;2022-07-29T12:15:31;153744.66;;;30.60;93.36
6034;BME280;3045;43.226;27.858;2022-07-29T12:17:58;153754.91;;;30.64;92.63
6034;BME280;3045;43.226;27.858;2022-07-29T12:20:26;153765.16;;;30.68;95.33
6034;BME280;3045;43.226;27.858;2022-07-29T12:22:54;153766.47;;;30.69;93.13
6034;BME280;3045;43.226;27.858;2022-07-29T12:25:22;153769.03;;;30.70;92.00
6034;BME280;3045;43.226;27.858;2022-07-29T12:27:59;153776.72;;;30.73;87.05
6034;BME280;3045;43.226;27.858;2022-07-29T12:30:39;153778.00;;;30.73;96.36
6034;BME280;3045;43.226;27.858;2022-07-29T12:33:21;153758.78;;;30.66;90.33
6034;BME280;3045;43.226;27.858;2022-07-29T12:35:50;153740.84;;;30.59;91.76
6034;BME280;3045;43.226;27.858;2022-07-29T12:38:19;153748.53;;;30.62;86.61
6034;BME280;3045;43.226;27.858;2022-07-29T12:40:46;153747.25;;;30.61;87.30
6034;BME280;3045;43.226;27.858;2022-07-29T12:43:15;153766.47;;;30.69;86.28
6034;BME280;3045;43.226;27.858;2022-07-29T12:45:45;153779.28;;;30.74;75.47
6034;BME280;3045;43.226;27.858;2022-07-29T12:48:13;153735.69;;;30.57;85.42
6034;BME280;3045;43.226;27.858;2022-07-29T12:50:53;153688.25;;;30.38;97.79
6034;BME280;3045;43.226;27.858;2022-07-29T12:53:21;153685.69;;;30.37;95.85
6034;BME280;3045;43.226;27.858;2022-07-29T12:55:49;153697.22;;;30.42;96.79
6034;BME280;3045;43.226;27.858;2022-07-29T12:58:34;153676.72;;;30.33;97.02
6034;BME280;3045;43.226;27.858;2022-07-29T13:01:08;153649.78;;;30.23;97.34
6034;BME280;3045;43.226;27.858;2022-07-29T13:04:01;153644.66;;;30.21;98.02
6034;BME280;3045;43.226;27.858;2022-07-29T13:06:31;153635.66;;;30.17;87.79
6034;BME280;3045;43.226;27.858;2022-07-29T13:09:09;153638.25;;;30.18;99.87
6034;BME280;3045;43.226;27.858;2022-07-29T13:11:38;153667.69;;;30.30;97.95